Normal, IL (61761)

2:08 PM CDT on August 30, 2015 (GMT -0500)
Park West | | Change Station
CLOSE
Current Station
Personal Weather Station
Location: Normal, IL
Elevation: 804 ft
Nearby Weather Stations

Elev 804 ft 40.53 °N, 89.02 °W | Updated 0 second ago

Partly Cloudy
Partly Cloudy
81.5 °F
Feels Like 85 °F
N
4.7
Wind Variable Wind from ENE

Today
High -- | Low -- °F
--% Chance of Precip.
Yesterday
High -- | Low -- °F
Precip. -- in
6:21 AM 7:31 PM
Full, 98% visible
Pressure 30.03 in
Visibility 10.0 miles
Clouds Scattered Clouds 1700 ft
Heat Index 85 °F
Dew Point 70 °F
Humidity 68%
Rainfall 0.00 in
Snow Depth Not available.
UV 7 out of 12
Pollen 10.30 out of 12
Air Quality Not available.
Flu Activity Not available.
METAR KBMI 301856Z VRB05KT 10SM SCT017 28/22 A3007 RMK AO2 T02770216 RAB30E42 P0000 SLP168
Pressure 30.03 in
Visibility 10.0 miles
Clouds Scattered Clouds 1700 ft
Heat Index 85 °F
Dew Point 70 °F
Humidity 68%
Rainfall 0.00 in
Snow Depth Not available.
UV 7 out of 12
Pollen 10.30 out of 12
Air Quality Not available.
Flu Activity Not available.
METAR KBMI 301856Z VRB05KT 10SM SCT017 28/22 A3007 RMK AO2 T02770216 RAB30E42 P0000 SLP168

10-Day Weather Forecast

×

Almanac

Astronomy

Aug. 30, 2015 Rise Set
Actual Time
Civil Twilight
Nautical Twilight
Astronomical Twilight
Moon
Length of Visible Light
Length of Day
Tomorrow will be .
, % of the Moon is Illuminated

Today's Extremes

State Highs State Lows

Community

WunderPhotos

Upload Photos

1,851,035 photos uploaded!

WunderBlogs® & News

Nearby

Air Quality

  Air Quality AQ Index Pollutant
Not available.

Snow Depth

Station Depth Elevation

Earthquake Activity

City Distance Mag. Time & Date
Minimum magnitude displayed is 2.5.

Coastal Water Temperatures

Place Temperature

Stations

Nearby Weather Stations

Station Location Temp. Windchill Dew Point Humidity Wind Precip. Elev Updated Type